createdAt,value
2018-03-14T00:01:54.522Z,93463.43
2018-03-14T00:04:22.192Z,93460.93
2018-03-14T00:06:50.526Z,93468.95
2018-03-14T00:09:18.172Z,93470.06
2018-03-14T00:11:46.272Z,93469.37
2018-03-14T00:14:13.961Z,93468.55
2018-03-14T00:16:41.801Z,93474.89
2018-03-14T00:19:09.477Z,93473.70
2018-03-14T00:21:37.313Z,93479.12
2018-03-14T00:24:05.063Z,93471.70
2018-03-14T00:26:32.859Z,93473.91
2018-03-14T00:29:00.666Z,93475.18
2018-03-14T00:31:28.587Z,93473.62
2018-03-14T00:45:19.550Z,93464.30
2018-03-14T00:47:47.857Z,93465.69
2018-03-14T00:50:15.939Z,93465.68
2018-03-14T00:52:43.585Z,93463.50
2018-03-14T00:55:11.211Z,93462.81
2018-03-14T00:57:38.845Z,93464.98
2018-03-14T01:00:06.983Z,93458.69
2018-03-14T01:02:35.175Z,93466.77
2018-03-14T01:05:03.226Z,93464.69
2018-03-14T01:07:31.428Z,93464.02
2018-03-14T01:09:59.040Z,93454.62
2018-03-14T01:12:26.649Z,93447.91
2018-03-14T01:14:54.516Z,93446.92
2018-03-14T01:17:22.617Z,93443.23
2018-03-14T01:19:50.833Z,93441.95
2018-03-14T01:22:18.586Z,93438.70
2018-03-14T01:24:46.268Z,93443.34
2018-03-14T01:27:14.083Z,93451.77
2018-03-14T01:29:42.372Z,93448.19
2018-03-14T01:32:10.031Z,93452.47
2018-03-14T01:34:37.863Z,93442.18
2018-03-14T01:37:08.103Z,93449.08
2018-03-14T01:39:36.521Z,93445.04
2018-03-14T01:42:04.291Z,93450.06
2018-03-14T01:44:32.529Z,93451.06
2018-03-14T01:47:00.985Z,93451.56
2018-03-14T01:49:28.730Z,93442.86
2018-03-14T01:51:56.392Z,93450.38
2018-03-14T01:54:24.036Z,93451.57
2018-03-14T01:56:51.987Z,93453.05
2018-03-14T01:59:19.831Z,93446.42
2018-03-14T02:01:47.470Z,93449.59
2018-03-14T02:04:15.315Z,93454.23
2018-03-14T02:06:42.964Z,93445.55
2018-03-14T02:09:11.332Z,93449.59
2018-03-14T02:11:38.939Z,93441.88
2018-03-14T02:14:06.625Z,93447.80
2018-03-14T02:16:34.326Z,93444.95
2018-03-14T02:19:01.990Z,93441.67
2018-03-14T02:21:29.761Z,93444.73
2018-03-14T02:23:58.132Z,93452.64
2018-03-14T02:26:26.021Z,93454.03
2018-03-14T02:28:54.382Z,93450.96
2018-03-14T02:31:22.152Z,93450.47
2018-03-14T02:33:49.816Z,93446.83
2018-03-14T02:36:29.567Z,93448.98
2018-03-14T02:38:57.212Z,93450.85
2018-03-14T02:41:25.008Z,93447.31
2018-03-14T02:43:52.871Z,93447.61
2018-03-14T02:46:20.564Z,93447.70
2018-03-14T02:48:48.598Z,93454.03
2018-03-14T02:51:16.206Z,93452.14
2018-03-14T02:53:43.831Z,93464.11
2018-03-14T02:56:12.183Z,93457.88
2018-03-14T02:58:39.825Z,93460.16
2018-03-14T03:01:07.535Z,93459.56
2018-03-14T03:03:35.287Z,93456.79
2018-03-14T03:06:03.974Z,93462.03
2018-03-14T03:08:31.631Z,93468.37
2018-03-14T03:10:59.833Z,93463.72
2018-03-14T03:13:27.527Z,93463.52
2018-03-14T03:15:56.616Z,93464.23
2018-03-14T03:18:24.244Z,93469.56
2018-03-14T03:20:52.269Z,93476.79
2018-03-14T03:23:19.854Z,93476.09
2018-03-14T03:25:47.524Z,93475.69
2018-03-14T03:28:15.385Z,93477.87
2018-03-14T03:30:43.285Z,93483.20
2018-03-14T03:33:10.916Z,93485.38
2018-03-14T03:35:38.568Z,93477.28
2018-03-14T03:38:06.217Z,93481.91
2018-03-14T03:40:33.918Z,93483.41
2018-03-14T03:43:01.672Z,93482.13
2018-03-14T03:45:29.518Z,93474.59
2018-03-14T03:47:57.115Z,93482.13
2018-03-14T03:50:24.859Z,93485.30
2018-03-14T03:52:53.167Z,93484.48
2018-03-14T03:55:20.802Z,93483.20
2018-03-14T03:57:48.484Z,93491.33
2018-03-14T04:00:16.306Z,93493.98
2018-03-14T04:02:43.984Z,93493.09
2018-03-14T04:05:12.429Z,93492.02
2018-03-14T04:07:40.072Z,93497.75
2018-03-14T04:10:08.597Z,93498.75
2018-03-14T04:12:36.370Z,93496.95
2018-03-14T04:15:04.102Z,93491.02
2018-03-14T04:17:32.315Z,93495.09
2018-03-14T04:19:59.969Z,93493.31
2018-03-14T04:22:28.122Z,93490.02
2018-03-14T04:24:55.941Z,93495.69
2018-03-14T04:27:23.582Z,93489.83
2018-03-14T04:29:51.216Z,93488.06
2018-03-14T04:32:18.873Z,93489.92
2018-03-14T04:34:46.983Z,93487.74
2018-03-14T04:37:14.729Z,93490.23
2018-03-14T04:39:42.358Z,93482.80
2018-03-14T04:42:10.720Z,93487.36
2018-03-14T04:44:40.160Z,93491.23
2018-03-14T04:47:08.665Z,93496.67
2018-03-14T04:49:37.092Z,93493.09
2018-03-14T04:52:04.819Z,93490.91
2018-03-14T04:54:32.687Z,93489.83
2018-03-14T04:57:00.340Z,93495.86
2018-03-14T04:59:28.014Z,93494.89
2018-03-14T05:01:55.636Z,93502.99
2018-03-14T05:04:23.263Z,93509.91
2018-03-14T05:06:52.434Z,93498.14
2018-03-14T05:09:20.041Z,93505.77
2018-03-14T05:11:47.760Z,93510.89
2018-03-14T05:14:15.638Z,93517.31
2018-03-14T05:16:43.241Z,93523.94
2018-03-14T05:19:11.191Z,93518.26
2018-03-14T05:21:38.837Z,93523.37
2018-03-14T05:24:06.418Z,93516.96
2018-03-14T05:26:34.805Z,93532.48
2018-03-14T05:29:02.401Z,93533.00
2018-03-14T05:31:30.021Z,93533.11
2018-03-14T05:33:57.734Z,93532.02
2018-03-14T05:36:26.520Z,93538.54
2018-03-14T05:38:54.918Z,93536.88
2018-03-14T05:41:22.642Z,93542.13
2018-03-14T05:43:50.646Z,93542.11
2018-03-14T05:46:18.491Z,93545.41
2018-03-14T05:48:46.171Z,93546.20
2018-03-14T05:51:13.832Z,93545.23
2018-03-14T05:53:41.569Z,93553.42
2018-03-14T05:56:09.527Z,93562.53
2018-03-14T05:58:37.227Z,93562.13
2018-03-14T06:01:05.109Z,93562.54
2018-03-14T06:03:33.300Z,93567.28
2018-03-14T06:06:01.123Z,93563.94
2018-03-14T06:08:29.413Z,93571.36
2018-03-14T06:10:57.076Z,93571.85
2018-03-14T06:13:25.334Z,93580.95
2018-03-14T06:15:53.767Z,93572.36
2018-03-14T06:18:21.484Z,93581.57
2018-03-14T06:20:49.351Z,93583.13
2018-03-14T06:23:17.044Z,93590.09
2018-03-14T06:25:44.670Z,93593.23
2018-03-14T06:28:15.212Z,93595.67
2018-03-14T06:30:43.048Z,93593.33
2018-03-14T06:33:10.722Z,93599.53
2018-03-14T06:35:38.924Z,93602.01
2018-03-14T06:38:06.875Z,93600.23
2018-03-14T06:40:34.740Z,93616.38
2018-03-14T06:43:02.368Z,93619.61
2018-03-14T06:45:30.966Z,93615.16
2018-03-14T06:47:59.158Z,93615.50
2018-03-14T06:50:26.824Z,93619.17
2018-03-14T06:52:55.537Z,93610.35
2018-03-14T06:55:23.681Z,93610.05
2018-03-14T06:57:52.282Z,93615.14
2018-03-14T07:00:31.881Z,93626.05
2018-03-14T07:03:11.471Z,93625.81
2018-03-14T07:05:50.885Z,93623.98
2018-03-14T07:08:18.777Z,93622.88
2018-03-14T07:10:46.438Z,93631.70
2018-03-14T07:13:14.323Z,93628.84
2018-03-14T07:15:42.029Z,93626.65
2018-03-14T07:18:09.815Z,93635.84
2018-03-14T07:20:37.460Z,93636.45
2018-03-14T07:23:05.161Z,93640.59
2018-03-14T07:25:33.970Z,93641.08
2018-03-14T07:28:02.517Z,93644.55
2018-03-14T07:30:30.400Z,93651.00
2018-03-14T07:32:58.161Z,93651.84
2018-03-14T07:35:26.167Z,93654.40
2018-03-14T07:37:53.860Z,93656.47
2018-03-14T07:40:21.571Z,93654.91
2018-03-14T07:42:50.039Z,93656.88
2018-03-14T07:45:17.647Z,93657.89
2018-03-14T07:47:45.370Z,93651.05
2018-03-14T07:50:14.244Z,93663.19
2018-03-14T07:52:41.911Z,93653.36
2018-03-14T07:55:09.578Z,93652.51
2018-03-14T07:57:37.879Z,93657.89
2018-03-14T08:00:05.543Z,93649.66
2018-03-14T08:02:33.164Z,93648.09
2018-03-14T08:05:01.060Z,93652.23
2018-03-14T08:07:28.802Z,93648.28
2018-03-14T08:09:56.923Z,93661.09
2018-03-14T08:12:24.795Z,93652.72
2018-03-14T08:14:52.616Z,93653.02
2018-03-14T08:17:20.267Z,93655.31
2018-03-14T08:19:49.811Z,93653.17
2018-03-14T08:22:18.351Z,93650.19
2018-03-14T08:24:45.944Z,93650.42
2018-03-14T08:27:14.268Z,93655.44
2018-03-14T08:29:41.933Z,93646.94
2018-03-14T08:32:09.943Z,93648.46
2018-03-14T08:34:37.615Z,93648.55
2018-03-14T08:37:05.261Z,93651.02
2018-03-14T08:39:33.026Z,93654.55
2018-03-14T08:42:01.264Z,93649.35
2018-03-14T08:44:29.217Z,93649.97
2018-03-14T08:46:57.043Z,93648.33
2018-03-14T08:49:24.828Z,93650.80
2018-03-14T08:51:52.569Z,93646.80
2018-03-14T08:54:20.608Z,93651.20
2018-03-14T08:56:50.427Z,93653.72
2018-03-14T08:59:18.867Z,93657.02
2018-03-14T09:01:47.412Z,93656.17
2018-03-14T09:04:15.158Z,93659.83
2018-03-14T09:06:42.942Z,93652.95
2018-03-14T09:09:10.616Z,93654.23
2018-03-14T09:11:38.264Z,93660.11
2018-03-14T09:14:06.347Z,93650.30
2018-03-14T09:16:34.186Z,93656.73
2018-03-14T09:19:02.348Z,93655.27
2018-03-14T09:21:30.382Z,93655.77
2018-03-14T09:23:58.122Z,93657.01
2018-03-14T09:26:25.785Z,93655.61
2018-03-14T09:28:53.486Z,93661.66
2018-03-14T09:31:21.175Z,93666.27
2018-03-14T09:33:48.980Z,93663.60
2018-03-14T09:36:16.825Z,93667.91
2018-03-14T09:38:44.507Z,93668.05
2018-03-14T09:41:12.159Z,93663.70
2018-03-14T09:43:39.925Z,93673.47
2018-03-14T09:46:07.562Z,93664.88
2018-03-14T09:48:35.198Z,93668.01
2018-03-14T09:51:02.922Z,93667.61
2018-03-14T09:53:30.572Z,93664.51
2018-03-14T09:55:58.445Z,93671.73
2018-03-14T09:58:26.090Z,93665.58
2018-03-14T10:00:54.406Z,93667.05
2018-03-14T10:03:22.006Z,93667.92
2018-03-14T10:05:49.849Z,93664.66
2018-03-14T10:08:18.730Z,93661.72
2018-03-14T10:10:46.435Z,93660.06
2018-03-14T10:13:14.860Z,93664.48
2018-03-14T10:15:42.597Z,93660.42
2018-03-14T10:18:10.424Z,93658.09
2018-03-14T10:20:38.239Z,93655.39
2018-03-14T10:23:06.485Z,93656.80
2018-03-14T10:25:34.165Z,93651.22
2018-03-14T10:28:01.836Z,93639.77
2018-03-14T10:30:29.516Z,93647.57
2018-03-14T10:32:57.178Z,93646.23
2018-03-14T10:35:25.157Z,93637.66
2018-03-14T10:37:52.959Z,93638.66
2018-03-14T10:40:20.679Z,93644.13
2018-03-14T10:42:48.585Z,93639.97
2018-03-14T10:45:16.302Z,93641.90
2018-03-14T10:47:44.374Z,93643.48
2018-03-14T10:50:12.031Z,93642.59
2018-03-14T10:52:39.765Z,93642.38
2018-03-14T10:55:07.941Z,93642.80
2018-03-14T10:57:35.594Z,93642.66
2018-03-14T11:00:03.508Z,93641.55
2018-03-14T11:02:31.160Z,93649.41
2018-03-14T11:04:58.803Z,93646.25
2018-03-14T11:07:26.700Z,93648.22
2018-03-14T11:09:54.579Z,93641.50
2018-03-14T11:12:22.217Z,93645.75
2018-03-14T11:14:49.868Z,93644.23
2018-03-14T11:17:17.536Z,93637.00
2018-03-14T11:19:45.415Z,93637.88
2018-03-14T11:22:13.067Z,93632.55
2018-03-14T11:24:40.664Z,93637.59
2018-03-14T11:27:08.537Z,93633.09
2018-03-14T11:29:36.187Z,93629.87
2018-03-14T11:32:03.918Z,93625.20
2018-03-14T11:34:31.511Z,93626.31
2018-03-14T11:37:00.359Z,93622.59
2018-03-14T11:39:27.947Z,93623.45
2018-03-14T11:41:55.890Z,93621.33
2018-03-14T11:44:23.530Z,93620.87
2018-03-14T11:46:51.511Z,93615.44
2018-03-14T11:49:19.248Z,93617.86
2018-03-14T11:51:47.566Z,93604.31
2018-03-14T11:54:15.453Z,93609.00
2018-03-14T11:56:43.320Z,93604.36
2018-03-14T11:59:10.998Z,93594.09
2018-03-14T12:01:38.664Z,93585.23
2018-03-14T12:04:06.342Z,93587.51
2018-03-14T12:06:34.028Z,93588.77
2018-03-14T12:09:01.723Z,93583.33
2018-03-14T12:11:29.447Z,93589.56
2018-03-14T12:13:57.075Z,93578.64
2018-03-14T12:16:24.738Z,93578.59
2018-03-14T12:18:52.351Z,93584.30
2018-03-14T12:21:20.644Z,93581.98
2018-03-14T12:23:48.731Z,93575.67
2018-03-14T12:26:17.237Z,93582.32
2018-03-14T12:28:44.823Z,93579.11
2018-03-14T12:31:13.284Z,93576.98
2018-03-14T12:33:40.865Z,93580.23
2018-03-14T12:36:08.533Z,93583.00
2018-03-14T12:38:36.175Z,93575.07
2018-03-14T12:41:04.817Z,93569.42
2018-03-14T12:43:32.467Z,93572.96
2018-03-14T12:46:00.069Z,93574.88
2018-03-14T12:48:27.723Z,93569.11
2018-03-14T12:50:55.354Z,93565.48
2018-03-14T12:53:23.017Z,93561.52
2018-03-14T12:55:50.631Z,93559.59
2018-03-14T12:58:18.283Z,93569.77
2018-03-14T13:00:45.886Z,93567.89
2018-03-14T13:03:13.534Z,93557.06
2018-03-14T13:05:41.180Z,93564.12
2018-03-14T13:08:08.877Z,93551.06
2018-03-14T13:10:36.520Z,93557.22
2018-03-14T13:13:04.157Z,93551.34
2018-03-14T13:15:31.815Z,93552.34
2018-03-14T13:17:59.419Z,93546.55
2018-03-14T13:20:27.125Z,93549.09
2018-03-14T13:22:54.763Z,93535.03
2018-03-14T13:25:22.434Z,93537.70
2018-03-14T13:27:50.880Z,93537.61
2018-03-14T13:30:18.494Z,93533.88
2018-03-14T13:32:46.143Z,93528.27
2018-03-14T13:35:13.819Z,93534.11
2018-03-14T13:37:41.425Z,93530.41
2018-03-14T13:40:09.072Z,93528.65
2018-03-14T13:42:36.683Z,93526.46
2018-03-14T13:45:04.966Z,93524.94
2018-03-14T13:47:32.592Z,93527.19
2018-03-14T13:50:00.271Z,93524.66
2018-03-14T13:52:27.967Z,93520.88
2018-03-14T13:54:55.626Z,93513.35
2018-03-14T13:57:23.240Z,93518.33
2018-03-14T13:59:50.936Z,93513.56
2018-03-14T14:02:18.557Z,93515.80
2018-03-14T14:04:46.243Z,93516.36
2018-03-14T14:07:13.911Z,93502.43
2018-03-14T14:09:41.516Z,93509.22
2018-03-14T14:12:09.194Z,93506.98
2018-03-14T14:14:36.837Z,93507.05
2018-03-14T14:17:04.526Z,93503.70
2018-03-14T14:19:32.136Z,93500.48
2018-03-14T14:21:59.798Z,93501.05
2018-03-14T14:24:27.482Z,93498.80
2018-03-14T14:26:55.140Z,93503.50
2018-03-14T14:29:22.803Z,93502.37
2018-03-14T14:31:50.414Z,93504.68
2018-03-14T14:34:18.102Z,93501.20
2018-03-14T14:36:45.717Z,93506.03
2018-03-14T14:39:13.380Z,93495.97
2018-03-14T14:41:41.088Z,93491.49
2018-03-14T14:44:08.719Z,93488.02
2018-03-14T14:46:36.402Z,93483.49
2018-03-14T14:49:04.101Z,93494.40
2018-03-14T14:51:31.777Z,93491.05
2018-03-14T14:53:59.364Z,93483.18
2018-03-14T14:56:27.033Z,93484.47
2018-03-14T14:58:54.642Z,93483.17
2018-03-14T15:01:23.297Z,93474.66
2018-03-14T15:03:51.164Z,93475.55
2018-03-14T15:06:18.911Z,93471.66
2018-03-14T15:08:46.710Z,93480.68
2018-03-14T15:11:15.202Z,93476.52
2018-03-14T15:13:42.841Z,93475.34
2018-03-14T15:16:10.536Z,93476.78
2018-03-14T15:18:38.172Z,93478.89
2018-03-14T15:21:06.505Z,93480.39
2018-03-14T15:23:34.263Z,93472.80
2018-03-14T15:26:03.104Z,93473.48
2018-03-14T15:28:30.859Z,93472.57
2018-03-14T15:30:58.554Z,93472.77
2018-03-14T15:33:26.171Z,93472.50
2018-03-14T15:35:53.868Z,93468.33
2018-03-14T15:38:21.572Z,93468.23
2018-03-14T15:40:50.532Z,93465.89
2018-03-14T15:43:18.223Z,93474.03
2018-03-14T15:45:46.022Z,93469.22
2018-03-14T15:48:13.812Z,93471.89
2018-03-14T15:50:43.360Z,93467.12
2018-03-14T15:53:11.048Z,93473.12
2018-03-14T15:55:38.726Z,93466.31
2018-03-14T15:58:06.756Z,93469.14
2018-03-14T16:00:35.647Z,93465.00
2018-03-14T16:03:03.379Z,93471.45
2018-03-14T16:05:31.234Z,93469.61
2018-03-14T16:07:58.942Z,93468.23
2018-03-14T16:10:26.781Z,93467.90
2018-03-14T16:12:54.757Z,93460.95
2018-03-14T16:15:22.461Z,93458.52
2018-03-14T16:17:51.106Z,93457.91
2018-03-14T16:20:18.802Z,93459.42
2018-03-14T16:22:46.500Z,93463.47
2018-03-14T16:25:14.138Z,93457.61
2018-03-14T16:27:41.841Z,93466.74
2018-03-14T16:30:09.532Z,93460.33
2018-03-14T16:32:37.349Z,93460.51
2018-03-14T16:35:04.993Z,93459.44
2018-03-14T16:37:32.739Z,93457.27
2018-03-14T16:40:00.472Z,93458.00
2018-03-14T16:42:28.146Z,93465.86
2018-03-14T16:44:55.803Z,93466.50
2018-03-14T16:47:23.511Z,93468.23
2018-03-14T16:49:52.286Z,93463.80
2018-03-14T16:52:20.696Z,93460.05
2018-03-14T16:54:48.499Z,93458.75
2018-03-14T16:57:16.240Z,93463.05
2018-03-14T16:59:43.984Z,93469.24
2018-03-14T17:02:12.227Z,93466.73
2018-03-14T17:04:39.934Z,93458.16
2018-03-14T17:07:07.844Z,93462.55
2018-03-14T17:09:35.560Z,93466.22
2018-03-14T17:12:03.330Z,93460.56
2018-03-14T17:14:30.993Z,93462.33
2018-03-14T17:16:58.749Z,93461.77
2018-03-14T17:19:26.496Z,93464.50
2018-03-14T17:21:54.426Z,93461.94
2018-03-14T17:24:22.753Z,93466.63
2018-03-14T17:26:50.554Z,93462.02
2018-03-14T17:29:18.336Z,93461.70
2018-03-14T17:31:46.165Z,93458.11
2018-03-14T17:34:13.864Z,93463.22
2018-03-14T17:36:42.382Z,93468.42
2018-03-14T17:39:10.121Z,93464.28
2018-03-14T17:41:37.820Z,93469.73
2018-03-14T17:44:05.638Z,93470.22
2018-03-14T17:46:33.889Z,93471.36
2018-03-14T17:49:01.608Z,93473.94
2018-03-14T17:51:29.314Z,93465.16
2018-03-14T17:53:57.654Z,93469.81
2018-03-14T17:56:26.125Z,93462.59
2018-03-14T17:58:53.757Z,93465.16
2018-03-14T18:01:21.529Z,93465.59
2018-03-14T18:03:53.011Z,93463.80
2018-03-14T18:06:20.875Z,93466.97
2018-03-14T18:08:48.534Z,93464.61
2018-03-14T18:11:16.288Z,93462.04
2018-03-14T18:13:43.927Z,93468.76
2018-03-14T18:16:12.789Z,93472.52
2018-03-14T18:18:40.514Z,93465.89
2018-03-14T18:21:09.122Z,93468.07
2018-03-14T18:23:36.820Z,93468.68
2018-03-14T18:26:04.512Z,93461.16
2018-03-14T18:28:32.262Z,93461.73
2018-03-14T18:31:00.143Z,93455.91
2018-03-14T18:33:28.133Z,93461.80
2018-03-14T18:35:56.216Z,93459.83
2018-03-14T18:38:24.173Z,93461.19
2018-03-14T18:40:52.617Z,93462.97
2018-03-14T18:43:20.433Z,93465.39
2018-03-14T18:45:48.295Z,93468.94
2018-03-14T18:48:16.058Z,93467.47
2018-03-14T18:50:45.110Z,93472.25
2018-03-14T18:53:13.432Z,93469.45
2018-03-14T18:55:41.971Z,93470.66
2018-03-14T18:58:09.646Z,93466.11
2018-03-14T19:00:38.341Z,93467.88
2018-03-14T19:03:06.668Z,93463.64
2018-03-14T19:05:34.374Z,93466.31
2018-03-14T19:08:02.027Z,93467.87
2018-03-14T19:10:29.936Z,93466.77
2018-03-14T19:12:57.780Z,93473.35
2018-03-14T19:15:25.479Z,93471.07
2018-03-14T19:17:53.191Z,93476.50
2018-03-14T19:20:20.999Z,93472.72
2018-03-14T19:22:49.890Z,93476.02
2018-03-14T19:25:18.163Z,93481.55
2018-03-14T19:27:46.037Z,93478.30
2018-03-14T19:30:15.249Z,93473.38
2018-03-14T19:32:43.448Z,93470.22
2018-03-14T19:35:11.269Z,93464.00
2018-03-14T19:37:41.022Z,93465.16
2018-03-14T19:40:09.148Z,93466.58
2018-03-14T19:42:36.817Z,93468.19
2018-03-14T19:45:04.856Z,93470.63
2018-03-14T19:47:33.549Z,93470.00
2018-03-14T19:50:02.486Z,93471.41
2018-03-14T19:52:31.034Z,93469.06
2018-03-14T19:54:59.538Z,93466.56
2018-03-14T19:57:28.665Z,93469.84
2018-03-14T19:59:57.833Z,93462.76
2018-03-14T20:02:26.248Z,93462.66
2018-03-14T20:04:55.069Z,93469.72
2018-03-14T20:07:23.329Z,93471.25
2018-03-14T20:09:52.247Z,93470.36
2018-03-14T20:12:20.330Z,93467.80
2018-03-14T20:14:48.123Z,93472.44
2018-03-14T20:17:16.175Z,93471.25
2018-03-14T20:19:44.244Z,93468.72
2018-03-14T20:22:11.952Z,93462.22
2018-03-14T20:24:39.653Z,93469.17
2018-03-14T20:27:07.532Z,93464.08
2018-03-14T20:29:35.191Z,93464.23
2018-03-14T20:32:03.616Z,93465.70
2018-03-14T20:34:31.525Z,93458.56
2018-03-14T20:36:59.246Z,93461.00
2018-03-14T20:39:27.501Z,93458.44
2018-03-14T20:41:55.147Z,93453.50
2018-03-14T20:44:22.790Z,93453.67
2018-03-14T20:46:50.461Z,93449.50
2018-03-14T20:49:18.193Z,93449.56
2018-03-14T20:51:45.797Z,93447.06
2018-03-14T20:54:13.467Z,93445.44
2018-03-14T20:56:41.069Z,93448.64
2018-03-14T20:59:08.792Z,93443.97
2018-03-14T21:01:36.388Z,93452.35
2018-03-14T21:04:04.034Z,93453.00
2018-03-14T21:06:32.489Z,93452.30
2018-03-14T21:09:00.165Z,93449.44
2018-03-14T21:11:27.836Z,93449.72
2018-03-14T21:13:55.523Z,93442.30
2018-03-14T21:16:23.229Z,93442.33
2018-03-14T21:18:50.873Z,93440.25
2018-03-14T21:21:18.558Z,93436.88
2018-03-14T21:23:46.165Z,93437.48
2018-03-14T21:26:13.820Z,93428.14
2018-03-14T21:28:41.499Z,93428.68
2018-03-14T21:31:09.192Z,93427.83
2018-03-14T21:33:36.974Z,93427.55
2018-03-14T21:36:04.596Z,93418.39
2018-03-14T21:38:32.286Z,93415.95
2018-03-14T21:40:59.970Z,93416.13
2018-03-14T21:43:27.625Z,93419.17
2018-03-14T21:45:55.900Z,93412.14
2018-03-14T21:48:23.495Z,93407.76
2018-03-14T21:50:51.208Z,93408.94
2018-03-14T21:53:18.839Z,93409.20
2018-03-14T21:55:46.545Z,93407.09
2018-03-14T21:58:14.149Z,93406.43
2018-03-14T22:00:41.811Z,93402.19
2018-03-14T22:03:09.404Z,93398.52
2018-03-14T22:05:37.078Z,93408.25
2018-03-14T22:08:04.722Z,93402.20
2018-03-14T22:10:32.332Z,93402.82
2018-03-14T22:12:59.987Z,93397.83
2018-03-14T22:15:27.705Z,93395.45
2018-03-14T22:17:55.339Z,93391.70
2018-03-14T22:20:22.990Z,93391.05
2018-03-14T22:22:50.628Z,93390.47
2018-03-14T22:25:18.320Z,93392.19
2018-03-14T22:27:45.978Z,93383.42
2018-03-14T22:30:13.642Z,93387.42
2018-03-14T22:32:41.247Z,93378.11
2018-03-14T22:35:08.892Z,93376.06
2018-03-14T22:37:36.552Z,93383.77
2018-03-14T22:40:04.236Z,93376.44
2018-03-14T22:42:31.938Z,93379.41
2018-03-14T22:44:59.582Z,93381.00
2018-03-14T22:47:27.230Z,93376.98
2018-03-14T22:49:54.882Z,93375.13
2018-03-14T22:52:22.477Z,93382.14
2018-03-14T22:54:50.116Z,93378.53
2018-03-14T22:57:17.721Z,93378.66
2018-03-14T22:59:45.379Z,93369.09
2018-03-14T23:02:13.046Z,93381.48
2018-03-14T23:04:40.709Z,93376.94
2018-03-14T23:07:08.384Z,93377.42
2018-03-14T23:09:35.986Z,93369.66
2018-03-14T23:12:03.642Z,93365.03
2018-03-14T23:14:31.273Z,93366.92
2018-03-14T23:16:58.885Z,93373.36
2018-03-14T23:19:26.549Z,93363.53
2018-03-14T23:21:54.162Z,93364.28
2018-03-14T23:24:21.815Z,93364.86
2018-03-14T23:26:49.419Z,93361.38
2018-03-14T23:29:17.047Z,93360.45
2018-03-14T23:31:44.676Z,93360.89
2018-03-14T23:34:12.270Z,93362.83
2018-03-14T23:36:39.887Z,93361.69
2018-03-14T23:39:07.497Z,93361.86
2018-03-14T23:41:35.153Z,93358.64
2018-03-14T23:44:02.789Z,93352.65
2018-03-14T23:46:30.373Z,93347.89
2018-03-14T23:48:58.018Z,93351.97
2018-03-14T23:51:25.597Z,93351.13
2018-03-14T23:53:53.264Z,93349.28
2018-03-14T23:56:20.920Z,93341.44
2018-03-14T23:58:48.501Z,93338.27
